createdAt,value
2019-04-27T00:00:20.748Z,100.00
2019-04-27T00:02:50.805Z,100.00
2019-04-27T00:05:24.350Z,100.00
2019-04-27T00:07:56.261Z,100.00
2019-04-27T00:10:30.037Z,100.00
2019-04-27T00:13:02.208Z,100.00
2019-04-27T00:15:45.676Z,100.00
2019-04-27T00:18:28.353Z,100.00
2019-04-27T00:21:00.726Z,100.00
2019-04-27T00:23:30.687Z,100.00
2019-04-27T00:25:59.068Z,100.00
2019-04-27T00:28:27.440Z,100.00
2019-04-27T00:30:56.346Z,100.00
2019-04-27T00:33:24.725Z,100.00
2019-04-27T00:36:03.569Z,100.00
2019-04-27T00:38:45.671Z,100.00
2019-04-27T00:41:19.249Z,100.00
2019-04-27T00:43:47.681Z,100.00
2019-04-27T00:46:16.297Z,100.00
2019-04-27T00:48:44.651Z,100.00
2019-04-27T00:51:14.474Z,100.00
2019-04-27T00:53:43.645Z,100.00
2019-04-27T00:56:23.647Z,100.00
2019-04-27T00:59:11.250Z,100.00
2019-04-27T01:01:43.511Z,100.00
2019-04-27T01:04:16.532Z,100.00
2019-04-27T01:06:44.817Z,100.00
2019-04-27T01:09:14.746Z,100.00
2019-04-27T01:11:43.465Z,100.00
2019-04-27T01:14:12.880Z,100.00
2019-04-27T01:16:41.657Z,100.00
2019-04-27T01:19:10.421Z,100.00
2019-04-27T01:21:39.643Z,100.00
2019-04-27T01:24:08.962Z,100.00
2019-04-27T01:26:41.935Z,100.00
2019-04-27T01:29:14.340Z,100.00
2019-04-27T01:31:42.709Z,100.00
2019-04-27T01:34:11.010Z,100.00
2019-04-27T01:36:39.346Z,100.00
2019-04-27T01:39:10.139Z,100.00
2019-04-27T01:41:39.105Z,100.00
2019-04-27T01:44:09.120Z,100.00
2019-04-27T01:46:39.573Z,100.00
2019-04-27T01:49:09.182Z,100.00
2019-04-27T01:51:39.128Z,100.00
2019-04-27T01:54:10.470Z,100.00
2019-04-27T01:56:39.482Z,100.00
2019-04-27T01:59:09.023Z,100.00
2019-04-27T02:01:39.985Z,100.00
2019-04-27T02:04:12.775Z,100.00
2019-04-27T02:06:41.631Z,100.00
2019-04-27T02:09:11.701Z,100.00
2019-04-27T02:11:40.152Z,100.00
2019-04-27T02:14:09.486Z,100.00
2019-04-27T02:16:39.177Z,100.00
2019-04-27T02:19:11.053Z,100.00
2019-04-27T02:21:39.176Z,100.00
2019-04-27T02:24:09.766Z,100.00
2019-04-27T02:26:39.734Z,100.00
2019-04-27T02:29:26.000Z,100.00
2019-04-27T02:32:14.040Z,100.00
2019-04-27T02:34:50.487Z,100.00
2019-04-27T02:37:20.082Z,100.00
2019-04-27T02:39:50.011Z,100.00
2019-04-27T02:42:20.016Z,100.00
2019-04-27T02:44:49.397Z,100.00
2019-04-27T02:47:20.460Z,100.00
2019-04-27T02:49:50.372Z,100.00
2019-04-27T02:52:22.869Z,100.00
2019-04-27T02:54:51.291Z,100.00
2019-04-27T02:57:20.066Z,100.00
2019-04-27T02:59:50.280Z,100.00
2019-04-27T03:02:26.537Z,100.00
2019-04-27T03:04:54.881Z,100.00
2019-04-27T03:07:23.219Z,100.00
2019-04-27T03:09:51.708Z,100.00
2019-04-27T03:12:21.665Z,100.00
2019-04-27T03:14:57.307Z,100.00
2019-04-27T03:17:42.001Z,100.00
2019-04-27T03:20:30.024Z,100.00
2019-04-27T03:23:00.693Z,100.00
2019-04-27T03:25:42.198Z,100.00
2019-04-27T03:28:11.967Z,100.00
2019-04-27T03:30:42.457Z,100.00
2019-04-27T03:33:11.951Z,100.00
2019-04-27T03:35:42.990Z,100.00
2019-04-27T03:38:12.553Z,100.00
2019-04-27T03:40:41.027Z,100.00
2019-04-27T03:43:16.529Z,100.00
2019-04-27T03:45:44.814Z,100.00
2019-04-27T03:48:13.109Z,100.00
2019-04-27T03:50:43.193Z,100.00
2019-04-27T03:53:15.907Z,100.00
2019-04-27T03:55:51.589Z,100.00
2019-04-27T03:58:21.884Z,100.00
2019-04-27T04:00:52.494Z,100.00
2019-04-27T04:03:20.895Z,100.00
2019-04-27T04:05:49.449Z,100.00
2019-04-27T04:08:19.436Z,100.00
2019-04-27T04:10:49.661Z,100.00
2019-04-27T04:13:20.439Z,100.00
2019-04-27T04:15:54.061Z,100.00
2019-04-27T04:18:23.020Z,100.00
2019-04-27T04:20:51.890Z,100.00
2019-04-27T04:23:20.629Z,100.00
2019-04-27T04:25:49.930Z,100.00
2019-04-27T04:28:19.889Z,100.00
2019-04-27T04:30:50.096Z,100.00
2019-04-27T04:33:20.535Z,100.00
2019-04-27T04:35:49.869Z,100.00
2019-04-27T04:38:20.524Z,100.00
2019-04-27T04:40:50.481Z,100.00
2019-04-27T04:43:20.544Z,100.00
2019-04-27T04:46:12.287Z,100.00
2019-04-27T04:48:40.351Z,100.00
2019-04-27T04:51:11.211Z,100.00
2019-04-27T04:53:40.623Z,100.00
2019-04-27T04:56:10.641Z,100.00
2019-04-27T04:58:39.745Z,100.00
2019-04-27T05:01:09.932Z,100.00
2019-04-27T05:03:38.935Z,100.00
2019-04-27T05:06:08.836Z,100.00
2019-04-27T05:08:39.261Z,100.00
2019-04-27T05:11:09.510Z,100.00
2019-04-27T05:13:39.360Z,100.00
2019-04-27T05:16:08.974Z,100.00
2019-04-27T05:18:39.266Z,100.00
2019-04-27T05:21:24.199Z,100.00
2019-04-27T05:23:52.553Z,100.00
2019-04-27T05:26:21.335Z,100.00
2019-04-27T05:28:49.620Z,100.00
2019-04-27T05:31:19.516Z,100.00
2019-04-27T05:33:49.029Z,100.00
2019-04-27T05:36:19.241Z,100.00
2019-04-27T05:38:49.686Z,100.00
2019-04-27T05:41:18.735Z,100.00
2019-04-27T05:43:58.990Z,100.00
2019-04-27T05:46:44.787Z,100.00
2019-04-27T05:49:23.594Z,100.00
2019-04-27T05:51:53.259Z,100.00
2019-04-27T05:54:21.550Z,100.00
2019-04-27T05:56:49.949Z,100.00
2019-04-27T05:59:19.837Z,100.00
2019-04-27T06:01:49.244Z,100.00
2019-04-27T06:04:19.302Z,100.00
2019-04-27T06:06:49.672Z,100.00
2019-04-27T06:09:19.395Z,100.00
2019-04-27T06:11:50.277Z,100.00
2019-04-27T06:14:19.235Z,100.00
2019-04-27T06:16:51.005Z,100.00
2019-04-27T06:19:19.357Z,100.00
2019-04-27T06:21:49.813Z,100.00
2019-04-27T06:24:18.641Z,100.00
2019-04-27T06:26:49.738Z,100.00
2019-04-27T06:29:17.124Z,100.00
2019-04-27T06:31:45.668Z,100.00
2019-04-27T06:34:14.022Z,100.00
2019-04-27T06:36:42.416Z,100.00
2019-04-27T06:39:10.790Z,100.00
2019-04-27T06:41:40.968Z,100.00
2019-04-27T06:44:11.290Z,100.00
2019-04-27T06:46:40.489Z,100.00
2019-04-27T06:49:10.827Z,100.00
2019-04-27T06:51:40.160Z,100.00
2019-04-27T06:54:09.274Z,100.00
2019-04-27T06:56:38.963Z,100.00
2019-04-27T06:59:08.740Z,100.00
2019-04-27T07:01:39.013Z,100.00
2019-04-27T07:04:08.857Z,100.00
2019-04-27T07:06:37.458Z,100.00
2019-04-27T07:09:09.605Z,100.00
2019-04-27T07:11:39.495Z,100.00
2019-04-27T07:14:11.170Z,100.00
2019-04-27T07:16:39.201Z,100.00
2019-04-27T07:19:09.377Z,100.00
2019-04-27T07:21:39.728Z,100.00
2019-04-27T07:24:09.002Z,100.00
2019-04-27T07:26:39.079Z,100.00
2019-04-27T07:29:09.388Z,100.00
2019-04-27T07:31:39.794Z,100.00
2019-04-27T07:34:09.385Z,100.00
2019-04-27T07:36:39.265Z,100.00
2019-04-27T07:39:11.134Z,100.00
2019-04-27T07:41:38.881Z,100.00
2019-04-27T07:44:16.188Z,100.00
2019-04-27T07:46:46.892Z,100.00
2019-04-27T07:49:17.072Z,100.00
2019-04-27T07:51:45.508Z,100.00
2019-04-27T07:54:14.900Z,100.00
2019-04-27T07:56:43.322Z,100.00
2019-04-27T07:59:11.628Z,100.00
2019-04-27T08:01:40.043Z,100.00
2019-04-27T08:04:09.428Z,100.00
2019-04-27T08:06:38.781Z,100.00
2019-04-27T08:09:09.214Z,100.00
2019-04-27T08:11:39.177Z,100.00
2019-04-27T08:14:08.680Z,100.00
2019-04-27T08:16:38.766Z,100.00
2019-04-27T08:19:07.431Z,100.00
2019-04-27T08:21:43.420Z,100.00
2019-04-27T08:24:05.919Z,100.00
2019-04-27T08:26:36.608Z,100.00
2019-04-27T08:29:12.471Z,100.00
2019-04-27T08:31:42.387Z,100.00
2019-04-27T08:34:12.396Z,100.00
2019-04-27T08:36:40.841Z,100.00
2019-04-27T08:39:09.890Z,100.00
2019-04-27T08:41:39.491Z,100.00
2019-04-27T08:44:09.703Z,100.00
2019-04-27T08:46:38.624Z,100.00
2019-04-27T08:49:08.397Z,100.00
2019-04-27T08:51:39.209Z,100.00
2019-04-27T08:54:09.091Z,100.00
2019-04-27T08:56:37.602Z,100.00
2019-04-27T08:59:05.912Z,100.00
2019-04-27T09:01:34.249Z,100.00
2019-04-27T09:04:02.600Z,100.00
2019-04-27T09:06:31.211Z,100.00
2019-04-27T09:09:03.751Z,100.00
2019-04-27T09:11:34.545Z,100.00
2019-04-27T09:14:05.272Z,100.00
2019-04-27T09:16:38.956Z,100.00
2019-04-27T09:19:14.749Z,100.00
2019-04-27T09:22:12.719Z,100.00
2019-04-27T09:24:30.886Z,100.00
2019-04-27T09:26:59.629Z,100.00
2019-04-27T09:29:29.864Z,100.00
2019-04-27T09:31:59.631Z,100.00
2019-04-27T09:34:28.617Z,100.00
2019-04-27T09:36:56.903Z,100.00
2019-04-27T09:39:26.464Z,100.00
2019-04-27T09:41:57.053Z,100.00
2019-04-27T09:44:26.694Z,100.00
2019-04-27T09:46:56.094Z,100.00
2019-04-27T09:49:26.140Z,100.00
2019-04-27T09:51:55.687Z,100.00
2019-04-27T09:54:24.130Z,100.00
2019-04-27T09:56:52.427Z,100.00
2019-04-27T09:59:20.842Z,100.00
2019-04-27T10:01:49.142Z,100.00
2019-04-27T10:04:17.872Z,100.00
2019-04-27T10:06:48.585Z,100.00
2019-04-27T10:09:16.332Z,100.00
2019-04-27T10:11:44.643Z,100.00
2019-04-27T10:14:12.923Z,100.00
2019-04-27T10:16:41.240Z,100.00
2019-04-27T10:19:10.323Z,100.00
2019-04-27T10:21:38.756Z,100.00
2019-04-27T10:24:07.031Z,100.00
2019-04-27T10:26:36.226Z,100.00
2019-04-27T10:29:06.177Z,100.00
2019-04-27T10:31:34.528Z,100.00
2019-04-27T10:34:03.896Z,100.00
2019-04-27T10:36:38.944Z,100.00
2019-04-27T10:39:09.026Z,100.00
2019-04-27T10:41:37.318Z,100.00
2019-04-27T10:44:07.567Z,100.00
2019-04-27T10:46:35.982Z,100.00
2019-04-27T10:49:05.910Z,100.00
2019-04-27T10:51:34.390Z,100.00
2019-04-27T10:54:03.273Z,100.00
2019-04-27T10:56:31.548Z,100.00
2019-04-27T10:58:59.838Z,100.00
2019-04-27T11:01:28.222Z,100.00
2019-04-27T11:04:05.976Z,100.00
2019-04-27T11:06:35.523Z,100.00
2019-04-27T11:09:09.028Z,100.00
2019-04-27T11:11:37.338Z,100.00
2019-04-27T11:14:06.905Z,100.00
2019-04-27T11:16:35.684Z,100.00
2019-04-27T11:19:06.605Z,100.00
2019-04-27T11:21:34.979Z,100.00
2019-04-27T11:24:03.349Z,100.00
2019-04-27T11:26:31.734Z,100.00
2019-04-27T11:29:00.090Z,100.00
2019-04-27T11:31:28.438Z,100.00
2019-04-27T11:33:57.439Z,100.00
2019-04-27T11:36:30.176Z,100.00
2019-04-27T11:39:02.972Z,100.00
2019-04-27T11:41:31.261Z,100.00
2019-04-27T11:44:02.000Z,100.00
2019-04-27T11:46:31.112Z,100.00
2019-04-27T11:48:59.469Z,100.00
2019-04-27T11:51:28.418Z,100.00
2019-04-27T11:53:56.850Z,100.00
2019-04-27T11:56:27.297Z,100.00
2019-04-27T11:58:56.157Z,100.00
2019-04-27T12:01:24.522Z,100.00
2019-04-27T12:03:52.812Z,100.00
2019-04-27T12:06:21.093Z,100.00
2019-04-27T12:08:49.405Z,100.00
2019-04-27T12:11:17.799Z,100.00
2019-04-27T12:13:46.232Z,100.00
2019-04-27T12:16:15.599Z,100.00
2019-04-27T12:18:48.856Z,100.00
2019-04-27T12:21:14.655Z,100.00
2019-04-27T12:23:42.964Z,100.00
2019-04-27T12:26:12.916Z,100.00
2019-04-27T12:28:45.977Z,100.00
2019-04-27T12:31:18.863Z,100.00
2019-04-27T12:33:47.148Z,100.00
2019-04-27T12:36:15.797Z,100.00
2019-04-27T12:38:44.330Z,100.00
2019-04-27T12:41:12.662Z,100.00
2019-04-27T12:43:40.987Z,100.00
2019-04-27T12:46:09.271Z,100.00
2019-04-27T12:48:37.630Z,100.00
2019-04-27T12:51:06.035Z,100.00
2019-04-27T12:53:52.193Z,100.00
2019-04-27T12:56:20.065Z,100.00
2019-04-27T12:58:59.319Z,100.00
2019-04-27T13:01:29.101Z,100.00
2019-04-27T13:03:59.295Z,100.00
2019-04-27T13:06:28.218Z,100.00
2019-04-27T13:08:56.500Z,100.00
2019-04-27T13:11:26.523Z,100.00
2019-04-27T13:13:57.196Z,100.00
2019-04-27T13:16:26.847Z,100.00
2019-04-27T13:18:57.507Z,100.00
2019-04-27T13:21:26.326Z,100.00
2019-04-27T13:24:03.698Z,100.00
2019-04-27T13:26:24.702Z,100.00
2019-04-27T13:28:53.159Z,100.00
2019-04-27T13:31:21.714Z,100.00
2019-04-27T13:33:49.995Z,100.00
2019-04-27T13:36:18.331Z,100.00
2019-04-27T13:38:46.768Z,100.00
2019-04-27T13:41:27.481Z,100.00
2019-04-27T13:43:45.161Z,100.00
2019-04-27T13:46:20.864Z,100.00
2019-04-27T13:49:09.183Z,100.00
2019-04-27T13:51:39.241Z,100.00
2019-04-27T13:54:17.191Z,100.00
2019-04-27T13:56:38.573Z,100.00
2019-04-27T13:59:07.696Z,100.00
2019-04-27T14:01:36.249Z,100.00
2019-04-27T14:04:04.841Z,100.00
2019-04-27T14:06:35.361Z,100.00
2019-04-27T14:09:04.506Z,98.87
2019-04-27T14:11:33.052Z,100.00
2019-04-27T14:14:01.344Z,100.00
2019-04-27T14:16:29.632Z,99.07
2019-04-27T14:18:59.411Z,94.23
2019-04-27T14:21:29.470Z,93.32
2019-04-27T14:23:58.591Z,90.79
2019-04-27T14:26:30.159Z,89.51
2019-04-27T14:28:58.475Z,87.28
2019-04-27T14:31:26.834Z,88.88
2019-04-27T14:33:55.264Z,83.98
2019-04-27T14:36:23.755Z,83.67
2019-04-27T14:38:52.334Z,82.88
2019-04-27T14:41:21.414Z,80.41
2019-04-27T14:44:04.911Z,80.76
2019-04-27T14:46:20.251Z,79.60
2019-04-27T14:48:48.519Z,79.75
2019-04-27T14:51:18.662Z,80.46
2019-04-27T14:53:48.861Z,81.79
2019-04-27T14:56:18.186Z,81.37
2019-04-27T14:58:46.740Z,81.38
2019-04-27T15:01:18.805Z,82.93
2019-04-27T15:03:47.597Z,82.64
2019-04-27T15:06:17.550Z,84.58
2019-04-27T15:08:47.066Z,83.80
2019-04-27T15:11:19.244Z,84.31
2019-04-27T15:13:48.682Z,86.37
2019-04-27T15:16:17.248Z,86.38
2019-04-27T15:18:52.650Z,87.02
2019-04-27T15:21:21.041Z,88.29
2019-04-27T15:23:49.509Z,87.46
2019-04-27T15:26:22.468Z,85.37
2019-04-27T15:28:51.288Z,84.09
2019-04-27T15:31:30.738Z,82.37
2019-04-27T15:34:06.674Z,81.15
2019-04-27T15:36:39.501Z,79.85
2019-04-27T15:39:22.594Z,79.71
2019-04-27T15:41:51.312Z,81.69
2019-04-27T15:44:19.603Z,83.86
2019-04-27T15:46:48.010Z,87.38
2019-04-27T15:49:17.939Z,89.73
2019-04-27T15:51:46.584Z,92.11
2019-04-27T15:54:15.755Z,94.32
2019-04-27T15:56:44.619Z,98.98
2019-04-27T15:59:13.083Z,100.00
2019-04-27T16:01:41.530Z,99.69
2019-04-27T16:04:12.812Z,98.72
2019-04-27T16:06:42.807Z,100.00
2019-04-27T16:09:25.377Z,96.87
2019-04-27T16:11:58.371Z,97.39
2019-04-27T16:14:22.751Z,98.86
2019-04-27T16:16:51.138Z,98.83
2019-04-27T16:19:19.553Z,95.28
2019-04-27T16:21:53.518Z,94.77
2019-04-27T16:24:21.177Z,95.70
2019-04-27T16:26:53.911Z,98.61
2019-04-27T16:29:18.670Z,95.13
2019-04-27T16:31:48.086Z,91.80
2019-04-27T16:34:18.370Z,88.84
2019-04-27T16:36:46.760Z,88.84
2019-04-27T16:39:15.123Z,87.74
2019-04-27T16:41:43.429Z,87.12
2019-04-27T16:44:11.733Z,85.10
2019-04-27T16:46:43.065Z,85.31
2019-04-27T16:49:14.050Z,84.79
2019-04-27T16:51:40.444Z,84.71
2019-04-27T16:54:11.217Z,86.35
2019-04-27T16:56:38.826Z,87.29
2019-04-27T16:59:26.770Z,86.45
2019-04-27T17:01:41.769Z,87.70
2019-04-27T17:04:11.227Z,86.95
2019-04-27T17:06:39.186Z,86.15
2019-04-27T17:09:11.357Z,86.17
2019-04-27T17:11:38.770Z,85.84
2019-04-27T17:14:09.461Z,87.48
2019-04-27T17:16:55.643Z,88.56
2019-04-27T17:19:25.596Z,89.46
2019-04-27T17:21:53.861Z,89.31
2019-04-27T17:24:41.976Z,88.27
2019-04-27T17:27:05.748Z,89.15
2019-04-27T17:29:35.749Z,88.85
2019-04-27T17:32:04.451Z,90.94
2019-04-27T17:34:32.986Z,90.25
2019-04-27T17:37:01.455Z,91.31
2019-04-27T17:39:30.070Z,92.54
2019-04-27T17:41:58.805Z,93.34
2019-04-27T17:44:28.839Z,92.17
2019-04-27T17:46:57.279Z,93.85
2019-04-27T17:49:25.558Z,95.50
2019-04-27T17:51:53.973Z,94.95
2019-04-27T17:54:22.267Z,95.50
2019-04-27T17:56:52.458Z,96.66
2019-04-27T17:59:21.090Z,98.49
2019-04-27T18:01:49.827Z,98.83
2019-04-27T18:04:20.262Z,99.51
2019-04-27T18:06:49.541Z,100.00
2019-04-27T18:09:19.207Z,100.00
2019-04-27T18:11:48.597Z,98.94
2019-04-27T18:14:19.266Z,100.00
2019-04-27T18:16:48.270Z,100.00
2019-04-27T18:19:21.204Z,100.00
2019-04-27T18:22:03.757Z,100.00
2019-04-27T18:24:38.019Z,100.00
2019-04-27T18:27:10.808Z,98.39
2019-04-27T18:29:39.087Z,98.57
2019-04-27T18:32:08.856Z,99.52
2019-04-27T18:34:38.954Z,99.98
2019-04-27T18:37:07.423Z,100.00
2019-04-27T18:39:35.807Z,100.00
2019-04-27T18:42:05.059Z,100.00
2019-04-27T18:44:33.746Z,100.00
2019-04-27T18:47:02.681Z,100.00
2019-04-27T18:49:35.605Z,100.00
2019-04-27T18:52:08.895Z,100.00
2019-04-27T18:54:41.789Z,100.00
2019-04-27T18:57:10.796Z,100.00
2019-04-27T18:59:38.185Z,100.00
2019-04-27T19:02:08.294Z,100.00
2019-04-27T19:04:36.661Z,100.00
2019-04-27T19:07:05.093Z,100.00
2019-04-27T19:09:33.370Z,100.00
2019-04-27T19:12:01.698Z,100.00
2019-04-27T19:14:30.013Z,100.00
2019-04-27T19:16:58.860Z,100.00
2019-04-27T19:19:28.078Z,100.00
2019-04-27T19:21:56.494Z,100.00
2019-04-27T19:24:24.895Z,100.00
2019-04-27T19:26:58.750Z,100.00
2019-04-27T19:29:29.279Z,100.00
2019-04-27T19:31:59.348Z,100.00
2019-04-27T19:34:28.669Z,100.00
2019-04-27T19:36:59.073Z,100.00
2019-04-27T19:39:28.621Z,100.00
2019-04-27T19:42:01.351Z,100.00
2019-04-27T19:44:28.959Z,100.00
2019-04-27T19:46:57.451Z,100.00
2019-04-27T19:49:25.725Z,100.00
2019-04-27T19:51:54.255Z,100.00
2019-04-27T19:54:22.546Z,100.00
2019-04-27T19:56:50.906Z,100.00
2019-04-27T19:59:28.039Z,100.00
2019-04-27T20:01:58.428Z,100.00
2019-04-27T20:04:28.420Z,100.00
2019-04-27T20:06:56.729Z,100.00
2019-04-27T20:09:26.825Z,100.00
2019-04-27T20:11:55.333Z,100.00
2019-04-27T20:14:23.624Z,100.00
2019-04-27T20:16:52.089Z,100.00
2019-04-27T20:19:21.602Z,100.00
2019-04-27T20:21:50.856Z,100.00
2019-04-27T20:24:19.257Z,100.00
2019-04-27T20:26:47.720Z,100.00
2019-04-27T20:29:16.104Z,100.00
2019-04-27T20:31:44.407Z,100.00
2019-04-27T20:34:12.860Z,100.00
2019-04-27T20:36:41.547Z,100.00
2019-04-27T20:39:11.601Z,100.00
2019-04-27T20:41:41.106Z,100.00
2019-04-27T20:44:12.309Z,100.00
2019-04-27T20:46:41.384Z,100.00
2019-04-27T20:49:11.798Z,100.00
2019-04-27T20:51:57.890Z,100.00
2019-04-27T20:54:26.185Z,100.00
2019-04-27T20:56:57.180Z,100.00
2019-04-27T20:59:24.585Z,100.00
2019-04-27T21:01:52.951Z,100.00
2019-04-27T21:04:25.859Z,100.00
2019-04-27T21:07:07.719Z,100.00
2019-04-27T21:09:36.105Z,100.00
2019-04-27T21:12:04.385Z,100.00
2019-04-27T21:14:32.725Z,100.00
2019-04-27T21:17:01.700Z,100.00
2019-04-27T21:19:31.970Z,100.00
2019-04-27T21:22:01.279Z,100.00
2019-04-27T21:24:31.114Z,100.00
2019-04-27T21:27:00.289Z,100.00
2019-04-27T21:29:28.779Z,100.00
2019-04-27T21:31:57.086Z,100.00
2019-04-27T21:34:25.651Z,100.00
2019-04-27T21:36:53.943Z,100.00
2019-04-27T21:39:22.228Z,100.00
2019-04-27T21:41:51.671Z,100.00
2019-04-27T21:44:21.772Z,100.00
2019-04-27T21:46:51.912Z,100.00
2019-04-27T21:49:22.239Z,100.00
2019-04-27T21:52:07.443Z,100.00
2019-04-27T21:54:37.518Z,100.00
2019-04-27T21:57:05.825Z,100.00
2019-04-27T21:59:34.098Z,100.00
2019-04-27T22:02:04.041Z,100.00
2019-04-27T22:04:32.398Z,100.00
2019-04-27T22:07:01.590Z,100.00
2019-04-27T22:09:29.866Z,100.00
2019-04-27T22:11:58.255Z,100.00
2019-04-27T22:14:26.607Z,100.00
2019-04-27T22:16:54.913Z,100.00
2019-04-27T22:19:23.388Z,100.00
2019-04-27T22:21:52.759Z,100.00
2019-04-27T22:24:22.837Z,100.00
2019-04-27T22:26:51.885Z,100.00
2019-04-27T22:29:22.170Z,100.00
2019-04-27T22:31:51.641Z,100.00
2019-04-27T22:34:21.055Z,100.00
2019-04-27T22:36:49.377Z,100.00
2019-04-27T22:39:25.155Z,100.00
2019-04-27T22:42:12.139Z,100.00
2019-04-27T22:44:44.099Z,100.00
2019-04-27T22:47:13.004Z,100.00
2019-04-27T22:49:41.421Z,100.00
2019-04-27T22:52:11.662Z,100.00
2019-04-27T22:54:42.126Z,100.00
2019-04-27T22:57:12.214Z,100.00
2019-04-27T22:59:48.147Z,100.00
2019-04-27T23:02:21.775Z,100.00
2019-04-27T23:05:01.971Z,100.00
2019-04-27T23:07:31.556Z,100.00
2019-04-27T23:10:01.498Z,100.00
2019-04-27T23:12:31.679Z,100.00
2019-04-27T23:15:00.351Z,100.00
2019-04-27T23:17:32.951Z,100.00
2019-04-27T23:20:01.558Z,100.00
2019-04-27T23:22:31.515Z,100.00
2019-04-27T23:25:01.133Z,100.00
2019-04-27T23:27:31.716Z,100.00
2019-04-27T23:30:01.409Z,100.00
2019-04-27T23:32:32.156Z,100.00
2019-04-27T23:35:00.501Z,100.00
2019-04-27T23:37:29.612Z,100.00
2019-04-27T23:39:58.520Z,100.00
2019-04-27T23:42:26.940Z,100.00
2019-04-27T23:44:55.223Z,100.00
2019-04-27T23:47:24.457Z,100.00
2019-04-27T23:49:52.802Z,100.00
2019-04-27T23:52:38.831Z,100.00
2019-04-27T23:55:07.109Z,100.00
2019-04-27T23:57:35.531Z,100.00
